sensor_id;sensor_type;location;lat;lon;timestamp;P1;durP1;ratioP1;P2;durP2;ratioP2
32292;SDS011;43233;48.608;8.838;2022-08-19T00:00:05;19.60;;;15.27;;
32292;SDS011;43233;48.608;8.838;2022-08-19T00:02:33;20.17;;;14.77;;
32292;SDS011;43233;48.608;8.838;2022-08-19T00:04:59;21.50;;;15.73;;
32292;SDS011;43233;48.608;8.838;2022-08-19T00:07:26;20.40;;;15.83;;
32292;SDS011;43233;48.608;8.838;2022-08-19T00:09:52;24.53;;;14.57;;
32292;SDS011;43233;48.608;8.838;2022-08-19T00:12:18;23.63;;;15.63;;
32292;SDS011;43233;48.608;8.838;2022-08-19T00:14:44;25.27;;;16.40;;
32292;SDS011;43233;48.608;8.838;2022-08-19T00:17:10;30.73;;;15.73;;
32292;SDS011;43233;48.608;8.838;2022-08-19T00:19:36;18.27;;;14.47;;
32292;SDS011;43233;48.608;8.838;2022-08-19T00:22:02;19.37;;;14.77;;
32292;SDS011;43233;48.608;8.838;2022-08-19T00:24:30;20.53;;;15.20;;
32292;SDS011;43233;48.608;8.838;2022-08-19T00:26:56;20.13;;;14.73;;
32292;SDS011;43233;48.608;8.838;2022-08-19T00:29:23;22.90;;;15.63;;
32292;SDS011;43233;48.608;8.838;2022-08-19T00:31:50;19.83;;;14.47;;
32292;SDS011;43233;48.608;8.838;2022-08-19T00:34:19;21.70;;;14.00;;
32292;SDS011;43233;48.608;8.838;2022-08-19T00:36:46;21.33;;;15.47;;
32292;SDS011;43233;48.608;8.838;2022-08-19T00:39:12;22.50;;;16.10;;
32292;SDS011;43233;48.608;8.838;2022-08-19T00:41:39;19.17;;;14.60;;
32292;SDS011;43233;48.608;8.838;2022-08-19T00:44:09;21.57;;;15.30;;
32292;SDS011;43233;48.608;8.838;2022-08-19T00:46:39;23.87;;;17.47;;
32292;SDS011;43233;48.608;8.838;2022-08-19T00:49:11;24.23;;;16.70;;
32292;SDS011;43233;48.608;8.838;2022-08-19T00:51:41;22.60;;;16.10;;
32292;SDS011;43233;48.608;8.838;2022-08-19T00:54:09;25.37;;;16.80;;
32292;SDS011;43233;48.608;8.838;2022-08-19T00:56:35;22.43;;;16.20;;
32292;SDS011;43233;48.608;8.838;2022-08-19T00:59:02;24.17;;;16.83;;
32292;SDS011;43233;48.608;8.838;2022-08-19T01:01:34;26.03;;;17.23;;
32292;SDS011;43233;48.608;8.838;2022-08-19T01:04:05;25.93;;;16.03;;
32292;SDS011;43233;48.608;8.838;2022-08-19T01:06:31;23.20;;;16.27;;
32292;SDS011;43233;48.608;8.838;2022-08-19T01:08:57;22.13;;;15.10;;
32292;SDS011;43233;48.608;8.838;2022-08-19T01:11:23;23.80;;;18.10;;
32292;SDS011;43233;48.608;8.838;2022-08-19T01:13:50;22.67;;;18.60;;
32292;SDS011;43233;48.608;8.838;2022-08-19T01:16:18;28.33;;;18.27;;
32292;SDS011;43233;48.608;8.838;2022-08-19T01:18:46;28.80;;;17.93;;
32292;SDS011;43233;48.608;8.838;2022-08-19T01:21:18;23.90;;;18.40;;
32292;SDS011;43233;48.608;8.838;2022-08-19T01:23:52;27.20;;;19.03;;
32292;SDS011;43233;48.608;8.838;2022-08-19T01:26:19;25.33;;;17.20;;
32292;SDS011;43233;48.608;8.838;2022-08-19T01:28:47;21.43;;;16.63;;
32292;SDS011;43233;48.608;8.838;2022-08-19T01:31:17;27.90;;;17.70;;
32292;SDS011;43233;48.608;8.838;2022-08-19T01:33:48;25.63;;;18.37;;
32292;SDS011;43233;48.608;8.838;2022-08-19T01:36:19;25.60;;;18.70;;
32292;SDS011;43233;48.608;8.838;2022-08-19T01:38:49;26.23;;;19.13;;
32292;SDS011;43233;48.608;8.838;2022-08-19T01:41:16;27.00;;;18.90;;
32292;SDS011;43233;48.608;8.838;2022-08-19T01:43:42;30.57;;;20.20;;
32292;SDS011;43233;48.608;8.838;2022-08-19T01:46:08;27.10;;;19.17;;
32292;SDS011;43233;48.608;8.838;2022-08-19T01:48:38;31.87;;;20.97;;
32292;SDS011;43233;48.608;8.838;2022-08-19T01:51:06;32.93;;;21.27;;
32292;SDS011;43233;48.608;8.838;2022-08-19T01:53:32;31.73;;;21.20;;
32292;SDS011;43233;48.608;8.838;2022-08-19T01:55:59;27.13;;;19.40;;
32292;SDS011;43233;48.608;8.838;2022-08-19T01:58:27;29.53;;;20.53;;
32292;SDS011;43233;48.608;8.838;2022-08-19T02:01:01;28.60;;;19.63;;
32292;SDS011;43233;48.608;8.838;2022-08-19T02:03:26;28.13;;;19.97;;
32292;SDS011;43233;48.608;8.838;2022-08-19T02:05:54;31.50;;;21.50;;
32292;SDS011;43233;48.608;8.838;2022-08-19T02:08:21;32.20;;;20.10;;
32292;SDS011;43233;48.608;8.838;2022-08-19T02:10:47;25.07;;;18.80;;
32292;SDS011;43233;48.608;8.838;2022-08-19T02:13:14;27.93;;;20.03;;
32292;SDS011;43233;48.608;8.838;2022-08-19T02:15:40;31.47;;;20.47;;
32292;SDS011;43233;48.608;8.838;2022-08-19T02:18:06;32.77;;;19.80;;
32292;SDS011;43233;48.608;8.838;2022-08-19T02:20:33;32.40;;;20.13;;
32292;SDS011;43233;48.608;8.838;2022-08-19T02:22:59;27.80;;;19.03;;
32292;SDS011;43233;48.608;8.838;2022-08-19T02:25:26;26.10;;;20.57;;
32292;SDS011;43233;48.608;8.838;2022-08-19T02:27:52;30.47;;;20.40;;
32292;SDS011;43233;48.608;8.838;2022-08-19T02:30:18;24.70;;;18.30;;
32292;SDS011;43233;48.608;8.838;2022-08-19T02:32:44;30.23;;;20.13;;
32292;SDS011;43233;48.608;8.838;2022-08-19T02:35:12;28.93;;;20.80;;
32292;SDS011;43233;48.608;8.838;2022-08-19T02:37:39;30.20;;;20.90;;
32292;SDS011;43233;48.608;8.838;2022-08-19T02:40:24;28.47;;;21.23;;
32292;SDS011;43233;48.608;8.838;2022-08-19T02:42:50;27.80;;;19.50;;
32292;SDS011;43233;48.608;8.838;2022-08-19T02:45:16;32.70;;;21.37;;
32292;SDS011;43233;48.608;8.838;2022-08-19T02:47:42;30.37;;;19.70;;
32292;SDS011;43233;48.608;8.838;2022-08-19T02:50:08;34.20;;;22.47;;
32292;SDS011;43233;48.608;8.838;2022-08-19T02:52:34;32.47;;;21.37;;
32292;SDS011;43233;48.608;8.838;2022-08-19T02:55:00;33.23;;;21.20;;
32292;SDS011;43233;48.608;8.838;2022-08-19T02:57:26;35.30;;;23.40;;
32292;SDS011;43233;48.608;8.838;2022-08-19T02:59:52;43.73;;;24.50;;
32292;SDS011;43233;48.608;8.838;2022-08-19T03:02:18;35.73;;;23.80;;
32292;SDS011;43233;48.608;8.838;2022-08-19T03:04:44;38.20;;;23.37;;
32292;SDS011;43233;48.608;8.838;2022-08-19T03:07:14;34.90;;;22.23;;
32292;SDS011;43233;48.608;8.838;2022-08-19T03:09:40;31.40;;;21.70;;
32292;SDS011;43233;48.608;8.838;2022-08-19T03:12:07;37.00;;;23.87;;
32292;SDS011;43233;48.608;8.838;2022-08-19T03:14:33;35.63;;;23.70;;
32292;SDS011;43233;48.608;8.838;2022-08-19T03:17:00;35.93;;;23.20;;
32292;SDS011;43233;48.608;8.838;2022-08-19T03:19:28;31.07;;;22.00;;
32292;SDS011;43233;48.608;8.838;2022-08-19T03:21:53;32.83;;;20.90;;
32292;SDS011;43233;48.608;8.838;2022-08-19T03:24:20;36.67;;;23.90;;
32292;SDS011;43233;48.608;8.838;2022-08-19T03:26:47;35.00;;;22.80;;
32292;SDS011;43233;48.608;8.838;2022-08-19T03:29:16;36.80;;;24.27;;
32292;SDS011;43233;48.608;8.838;2022-08-19T03:31:43;38.30;;;23.17;;
32292;SDS011;43233;48.608;8.838;2022-08-19T03:34:20;36.07;;;24.53;;
32292;SDS011;43233;48.608;8.838;2022-08-19T03:36:51;34.00;;;23.53;;
32292;SDS011;43233;48.608;8.838;2022-08-19T03:39:19;40.30;;;25.63;;
32292;SDS011;43233;48.608;8.838;2022-08-19T03:41:46;36.83;;;23.67;;
32292;SDS011;43233;48.608;8.838;2022-08-19T03:44:14;34.83;;;23.77;;
32292;SDS011;43233;48.608;8.838;2022-08-19T03:46:42;38.13;;;23.40;;
32292;SDS011;43233;48.608;8.838;2022-08-19T03:49:08;39.53;;;24.97;;
32292;SDS011;43233;48.608;8.838;2022-08-19T03:51:35;32.87;;;24.10;;
32292;SDS011;43233;48.608;8.838;2022-08-19T03:54:04;37.03;;;24.47;;
32292;SDS011;43233;48.608;8.838;2022-08-19T03:56:33;35.13;;;25.00;;
32292;SDS011;43233;48.608;8.838;2022-08-19T03:59:00;35.77;;;25.60;;
32292;SDS011;43233;48.608;8.838;2022-08-19T04:01:27;40.20;;;25.07;;
32292;SDS011;43233;48.608;8.838;2022-08-19T04:03:57;36.27;;;24.50;;
32292;SDS011;43233;48.608;8.838;2022-08-19T04:06:27;36.13;;;26.93;;
32292;SDS011;43233;48.608;8.838;2022-08-19T04:08:55;35.53;;;24.23;;
32292;SDS011;43233;48.608;8.838;2022-08-19T04:11:26;37.77;;;24.27;;
32292;SDS011;43233;48.608;8.838;2022-08-19T04:13:58;36.10;;;25.17;;
32292;SDS011;43233;48.608;8.838;2022-08-19T04:16:25;33.33;;;24.20;;
32292;SDS011;43233;48.608;8.838;2022-08-19T04:18:54;35.20;;;24.10;;
32292;SDS011;43233;48.608;8.838;2022-08-19T04:21:25;36.40;;;25.43;;
32292;SDS011;43233;48.608;8.838;2022-08-19T04:23:52;44.20;;;28.27;;
32292;SDS011;43233;48.608;8.838;2022-08-19T04:26:25;33.70;;;23.83;;
32292;SDS011;43233;48.608;8.838;2022-08-19T04:28:53;38.20;;;26.03;;
32292;SDS011;43233;48.608;8.838;2022-08-19T04:31:24;45.93;;;27.13;;
32292;SDS011;43233;48.608;8.838;2022-08-19T04:33:51;39.97;;;24.17;;
32292;SDS011;43233;48.608;8.838;2022-08-19T04:36:37;43.27;;;27.07;;
32292;SDS011;43233;48.608;8.838;2022-08-19T04:39:06;38.07;;;24.90;;
32292;SDS011;43233;48.608;8.838;2022-08-19T04:41:38;38.50;;;25.97;;
32292;SDS011;43233;48.608;8.838;2022-08-19T04:44:22;42.40;;;26.47;;
32292;SDS011;43233;48.608;8.838;2022-08-19T04:46:49;34.90;;;25.30;;
32292;SDS011;43233;48.608;8.838;2022-08-19T04:49:15;35.10;;;23.07;;
32292;SDS011;43233;48.608;8.838;2022-08-19T04:51:44;37.30;;;24.07;;
32292;SDS011;43233;48.608;8.838;2022-08-19T04:54:11;40.63;;;24.43;;
32292;SDS011;43233;48.608;8.838;2022-08-19T04:56:38;40.53;;;26.60;;
32292;SDS011;43233;48.608;8.838;2022-08-19T04:59:05;39.00;;;25.00;;
32292;SDS011;43233;48.608;8.838;2022-08-19T05:01:31;37.47;;;25.70;;
32292;SDS011;43233;48.608;8.838;2022-08-19T05:03:59;38.00;;;24.70;;
32292;SDS011;43233;48.608;8.838;2022-08-19T05:06:29;40.87;;;26.77;;
32292;SDS011;43233;48.608;8.838;2022-08-19T05:08:59;38.13;;;25.87;;
32292;SDS011;43233;48.608;8.838;2022-08-19T05:11:26;38.73;;;26.00;;
32292;SDS011;43233;48.608;8.838;2022-08-19T05:13:55;38.30;;;25.70;;
32292;SDS011;43233;48.608;8.838;2022-08-19T05:16:21;38.13;;;26.03;;
32292;SDS011;43233;48.608;8.838;2022-08-19T05:18:48;35.83;;;25.53;;
32292;SDS011;43233;48.608;8.838;2022-08-19T05:21:34;36.17;;;24.67;;
32292;SDS011;43233;48.608;8.838;2022-08-19T05:24:19;39.40;;;24.90;;
32292;SDS011;43233;48.608;8.838;2022-08-19T05:26:49;36.10;;;25.00;;
32292;SDS011;43233;48.608;8.838;2022-08-19T05:29:18;42.53;;;26.70;;
32292;SDS011;43233;48.608;8.838;2022-08-19T05:31:45;40.37;;;24.70;;
32292;SDS011;43233;48.608;8.838;2022-08-19T05:34:14;37.83;;;25.50;;
32292;SDS011;43233;48.608;8.838;2022-08-19T05:36:42;40.30;;;26.07;;
32292;SDS011;43233;48.608;8.838;2022-08-19T05:39:13;34.57;;;24.47;;
32292;SDS011;43233;48.608;8.838;2022-08-19T05:41:48;38.77;;;25.00;;
32292;SDS011;43233;48.608;8.838;2022-08-19T05:44:17;44.40;;;26.30;;
32292;SDS011;43233;48.608;8.838;2022-08-19T05:46:44;32.97;;;22.90;;
32292;SDS011;43233;48.608;8.838;2022-08-19T05:49:14;34.27;;;24.10;;
32292;SDS011;43233;48.608;8.838;2022-08-19T05:51:41;35.07;;;24.10;;
32292;SDS011;43233;48.608;8.838;2022-08-19T05:54:07;39.80;;;22.43;;
32292;SDS011;43233;48.608;8.838;2022-08-19T05:56:34;35.10;;;22.93;;
32292;SDS011;43233;48.608;8.838;2022-08-19T05:59:03;40.47;;;23.53;;
32292;SDS011;43233;48.608;8.838;2022-08-19T06:01:33;34.97;;;22.63;;
32292;SDS011;43233;48.608;8.838;2022-08-19T06:03:59;32.97;;;22.30;;
32292;SDS011;43233;48.608;8.838;2022-08-19T06:06:25;34.07;;;24.70;;
32292;SDS011;43233;48.608;8.838;2022-08-19T06:08:51;32.00;;;24.00;;
32292;SDS011;43233;48.608;8.838;2022-08-19T06:13:50;34.40;;;24.30;;
32292;SDS011;43233;48.608;8.838;2022-08-19T06:16:19;34.17;;;22.97;;
32292;SDS011;43233;48.608;8.838;2022-08-19T06:18:49;29.77;;;19.90;;
32292;SDS011;43233;48.608;8.838;2022-08-19T06:21:16;28.87;;;21.93;;
32292;SDS011;43233;48.608;8.838;2022-08-19T06:23:44;38.43;;;24.37;;
32292;SDS011;43233;48.608;8.838;2022-08-19T06:26:13;30.47;;;21.90;;
32292;SDS011;43233;48.608;8.838;2022-08-19T06:28:40;34.97;;;23.70;;
32292;SDS011;43233;48.608;8.838;2022-08-19T06:31:12;32.70;;;22.03;;
32292;SDS011;43233;48.608;8.838;2022-08-19T06:33:39;31.83;;;22.33;;
32292;SDS011;43233;48.608;8.838;2022-08-19T06:36:06;31.43;;;23.80;;
32292;SDS011;43233;48.608;8.838;2022-08-19T06:38:32;40.67;;;24.17;;
32292;SDS011;43233;48.608;8.838;2022-08-19T06:41:01;32.40;;;23.07;;
32292;SDS011;43233;48.608;8.838;2022-08-19T06:43:28;31.60;;;22.67;;
32292;SDS011;43233;48.608;8.838;2022-08-19T06:45:53;34.93;;;23.33;;
32292;SDS011;43233;48.608;8.838;2022-08-19T06:48:19;36.57;;;21.77;;
32292;SDS011;43233;48.608;8.838;2022-08-19T06:50:45;29.67;;;21.43;;
32292;SDS011;43233;48.608;8.838;2022-08-19T06:53:10;30.90;;;22.57;;
32292;SDS011;43233;48.608;8.838;2022-08-19T06:55:36;29.90;;;20.30;;
32292;SDS011;43233;48.608;8.838;2022-08-19T06:58:02;30.93;;;22.63;;
32292;SDS011;43233;48.608;8.838;2022-08-19T07:00:29;35.30;;;22.33;;
32292;SDS011;43233;48.608;8.838;2022-08-19T07:02:54;28.97;;;22.10;;
32292;SDS011;43233;48.608;8.838;2022-08-19T07:05:20;28.90;;;20.60;;
32292;SDS011;43233;48.608;8.838;2022-08-19T07:07:46;33.73;;;20.80;;
32292;SDS011;43233;48.608;8.838;2022-08-19T07:10:11;29.20;;;20.70;;
32292;SDS011;43233;48.608;8.838;2022-08-19T07:12:37;32.97;;;21.00;;
32292;SDS011;43233;48.608;8.838;2022-08-19T07:15:04;29.87;;;21.27;;
32292;SDS011;43233;48.608;8.838;2022-08-19T07:17:31;29.77;;;19.03;;
32292;SDS011;43233;48.608;8.838;2022-08-19T07:19:57;23.00;;;17.67;;
32292;SDS011;43233;48.608;8.838;2022-08-19T07:22:23;30.87;;;19.23;;
32292;SDS011;43233;48.608;8.838;2022-08-19T07:24:49;24.73;;;17.87;;
32292;SDS011;43233;48.608;8.838;2022-08-19T07:27:15;19.03;;;14.77;;
32292;SDS011;43233;48.608;8.838;2022-08-19T07:29:41;22.17;;;16.50;;
32292;SDS011;43233;48.608;8.838;2022-08-19T07:32:07;32.87;;;18.97;;
32292;SDS011;43233;48.608;8.838;2022-08-19T07:34:34;24.17;;;17.90;;
32292;SDS011;43233;48.608;8.838;2022-08-19T07:37:03;31.63;;;18.60;;
32292;SDS011;43233;48.608;8.838;2022-08-19T07:39:30;26.70;;;17.17;;
32292;SDS011;43233;48.608;8.838;2022-08-19T07:41:58;26.60;;;17.03;;
32292;SDS011;43233;48.608;8.838;2022-08-19T07:44:26;22.03;;;16.00;;
32292;SDS011;43233;48.608;8.838;2022-08-19T07:46:53;29.00;;;17.83;;
32292;SDS011;43233;48.608;8.838;2022-08-19T07:49:21;21.93;;;16.10;;
32292;SDS011;43233;48.608;8.838;2022-08-19T07:51:57;24.93;;;16.77;;
32292;SDS011;43233;48.608;8.838;2022-08-19T07:54:26;20.60;;;14.37;;
32292;SDS011;43233;48.608;8.838;2022-08-19T07:56:54;25.20;;;16.80;;
32292;SDS011;43233;48.608;8.838;2022-08-19T07:59:20;29.10;;;16.70;;
32292;SDS011;43233;48.608;8.838;2022-08-19T08:01:47;24.70;;;16.73;;
32292;SDS011;43233;48.608;8.838;2022-08-19T08:04:14;26.03;;;16.87;;
32292;SDS011;43233;48.608;8.838;2022-08-19T08:06:58;22.80;;;15.57;;
32292;SDS011;43233;48.608;8.838;2022-08-19T08:09:43;23.80;;;14.67;;
32292;SDS011;43233;48.608;8.838;2022-08-19T08:12:17;26.93;;;15.87;;
32292;SDS011;43233;48.608;8.838;2022-08-19T08:14:48;22.60;;;15.27;;
32292;SDS011;43233;48.608;8.838;2022-08-19T08:17:17;22.50;;;16.30;;
32292;SDS011;43233;48.608;8.838;2022-08-19T08:19:44;20.77;;;15.80;;
32292;SDS011;43233;48.608;8.838;2022-08-19T08:22:11;23.53;;;15.30;;
32292;SDS011;43233;48.608;8.838;2022-08-19T08:27:39;26.33;;;15.80;;
32292;SDS011;43233;48.608;8.838;2022-08-19T08:30:11;18.83;;;13.83;;
32292;SDS011;43233;48.608;8.838;2022-08-19T08:32:41;18.50;;;14.63;;
32292;SDS011;43233;48.608;8.838;2022-08-19T08:35:08;16.57;;;12.67;;
32292;SDS011;43233;48.608;8.838;2022-08-19T08:37:36;17.20;;;13.20;;
32292;SDS011;43233;48.608;8.838;2022-08-19T08:40:45;20.30;;;14.00;;
32292;SDS011;43233;48.608;8.838;2022-08-19T08:42:57;15.77;;;12.67;;
32292;SDS011;43233;48.608;8.838;2022-08-19T08:45:36;17.40;;;11.73;;
32292;SDS011;43233;48.608;8.838;2022-08-19T08:48:16;15.80;;;13.33;;
32292;SDS011;43233;48.608;8.838;2022-08-19T08:50:47;22.87;;;13.57;;
32292;SDS011;43233;48.608;8.838;2022-08-19T08:53:18;15.03;;;11.93;;
32292;SDS011;43233;48.608;8.838;2022-08-19T08:55:45;19.00;;;13.80;;
32292;SDS011;43233;48.608;8.838;2022-08-19T08:58:12;16.30;;;13.50;;
32292;SDS011;43233;48.608;8.838;2022-08-19T09:00:44;25.10;;;12.70;;
32292;SDS011;43233;48.608;8.838;2022-08-19T09:03:17;20.50;;;12.97;;
32292;SDS011;43233;48.608;8.838;2022-08-19T09:11:10;14.83;;;12.50;;
32292;SDS011;43233;48.608;8.838;2022-08-19T09:13:51;15.73;;;11.77;;
32292;SDS011;43233;48.608;8.838;2022-08-19T09:16:22;12.87;;;10.43;;
32292;SDS011;43233;48.608;8.838;2022-08-19T09:18:52;19.80;;;12.13;;
32292;SDS011;43233;48.608;8.838;2022-08-19T09:21:20;14.97;;;12.30;;
32292;SDS011;43233;48.608;8.838;2022-08-19T09:23:47;16.00;;;11.60;;
32292;SDS011;43233;48.608;8.838;2022-08-19T09:26:15;15.90;;;12.20;;
32292;SDS011;43233;48.608;8.838;2022-08-19T09:28:46;17.17;;;13.13;;
32292;SDS011;43233;48.608;8.838;2022-08-19T09:31:15;22.53;;;13.33;;
32292;SDS011;43233;48.608;8.838;2022-08-19T09:33:42;14.57;;;11.50;;
32292;SDS011;43233;48.608;8.838;2022-08-19T09:36:09;17.47;;;12.53;;
32292;SDS011;43233;48.608;8.838;2022-08-19T09:38:38;23.00;;;14.80;;
32292;SDS011;43233;48.608;8.838;2022-08-19T09:41:07;16.43;;;12.07;;
32292;SDS011;43233;48.608;8.838;2022-08-19T09:43:39;17.27;;;13.30;;
32292;SDS011;43233;48.608;8.838;2022-08-19T09:46:06;16.50;;;11.60;;
32292;SDS011;43233;48.608;8.838;2022-08-19T09:48:34;14.53;;;12.07;;
32292;SDS011;43233;48.608;8.838;2022-08-19T09:51:08;16.00;;;12.13;;
32292;SDS011;43233;48.608;8.838;2022-08-19T09:53:36;19.53;;;12.83;;
32292;SDS011;43233;48.608;8.838;2022-08-19T09:56:02;14.03;;;11.33;;
32292;SDS011;43233;48.608;8.838;2022-08-19T09:58:30;13.97;;;12.43;;
32292;SDS011;43233;48.608;8.838;2022-08-19T10:00:57;15.30;;;12.60;;
32292;SDS011;43233;48.608;8.838;2022-08-19T10:03:24;16.27;;;13.30;;
32292;SDS011;43233;48.608;8.838;2022-08-19T10:05:51;14.90;;;11.97;;
32292;SDS011;43233;48.608;8.838;2022-08-19T10:08:21;16.57;;;13.40;;
32292;SDS011;43233;48.608;8.838;2022-08-19T10:10:49;14.40;;;12.47;;
32292;SDS011;43233;48.608;8.838;2022-08-19T10:13:16;15.00;;;13.27;;
32292;SDS011;43233;48.608;8.838;2022-08-19T10:15:47;19.03;;;13.17;;
32292;SDS011;43233;48.608;8.838;2022-08-19T10:18:15;18.87;;;13.83;;
32292;SDS011;43233;48.608;8.838;2022-08-19T10:20:48;20.50;;;12.70;;
32292;SDS011;43233;48.608;8.838;2022-08-19T10:23:16;21.27;;;13.87;;
32292;SDS011;43233;48.608;8.838;2022-08-19T10:25:42;13.73;;;11.93;;
32292;SDS011;43233;48.608;8.838;2022-08-19T10:28:08;19.90;;;14.20;;
32292;SDS011;43233;48.608;8.838;2022-08-19T10:30:37;17.43;;;13.27;;
32292;SDS011;43233;48.608;8.838;2022-08-19T10:33:04;14.10;;;11.37;;
32292;SDS011;43233;48.608;8.838;2022-08-19T10:35:31;15.10;;;13.23;;
32292;SDS011;43233;48.608;8.838;2022-08-19T10:37:57;17.27;;;10.47;;
32292;SDS011;43233;48.608;8.838;2022-08-19T10:40:24;19.60;;;14.63;;
32292;SDS011;43233;48.608;8.838;2022-08-19T10:42:52;15.60;;;12.50;;
32292;SDS011;43233;48.608;8.838;2022-08-19T10:45:18;17.20;;;10.73;;
32292;SDS011;43233;48.608;8.838;2022-08-19T10:47:47;17.60;;;12.80;;
32292;SDS011;43233;48.608;8.838;2022-08-19T10:50:12;15.23;;;11.67;;
32292;SDS011;43233;48.608;8.838;2022-08-19T10:52:56;11.63;;;10.03;;
32292;SDS011;43233;48.608;8.838;2022-08-19T10:55:23;14.90;;;11.63;;
32292;SDS011;43233;48.608;8.838;2022-08-19T10:58:14;13.67;;;10.53;;
32292;SDS011;43233;48.608;8.838;2022-08-19T11:00:53;13.93;;;9.97;;
32292;SDS011;43233;48.608;8.838;2022-08-19T11:03:21;12.40;;;9.97;;
32292;SDS011;43233;48.608;8.838;2022-08-19T11:05:57;12.60;;;11.20;;
32292;SDS011;43233;48.608;8.838;2022-08-19T11:08:26;11.30;;;10.10;;
32292;SDS011;43233;48.608;8.838;2022-08-19T11:10:53;10.40;;;8.63;;
32292;SDS011;43233;48.608;8.838;2022-08-19T11:13:27;9.10;;;8.20;;
32292;SDS011;43233;48.608;8.838;2022-08-19T11:16:00;9.63;;;8.63;;
32292;SDS011;43233;48.608;8.838;2022-08-19T11:18:27;9.47;;;8.47;;
32292;SDS011;43233;48.608;8.838;2022-08-19T11:20:53;10.87;;;8.57;;
32292;SDS011;43233;48.608;8.838;2022-08-19T11:23:19;10.50;;;8.90;;
32292;SDS011;43233;48.608;8.838;2022-08-19T11:25:45;8.20;;;7.40;;
32292;SDS011;43233;48.608;8.838;2022-08-19T11:28:12;10.97;;;7.33;;
32292;SDS011;43233;48.608;8.838;2022-08-19T11:30:38;8.00;;;7.20;;
32292;SDS011;43233;48.608;8.838;2022-08-19T11:33:04;17.83;;;8.40;;
32292;SDS011;43233;48.608;8.838;2022-08-19T11:35:29;12.30;;;8.50;;
32292;SDS011;43233;48.608;8.838;2022-08-19T11:37:55;8.73;;;7.70;;
32292;SDS011;43233;48.608;8.838;2022-08-19T11:40:26;8.40;;;7.60;;
32292;SDS011;43233;48.608;8.838;2022-08-19T11:42:52;13.23;;;7.17;;
32292;SDS011;43233;48.608;8.838;2022-08-19T11:45:21;8.50;;;6.83;;
32292;SDS011;43233;48.608;8.838;2022-08-19T11:47:48;7.70;;;6.90;;
32292;SDS011;43233;48.608;8.838;2022-08-19T11:50:14;10.00;;;8.20;;
32292;SDS011;43233;48.608;8.838;2022-08-19T11:52:41;10.23;;;7.97;;
32292;SDS011;43233;48.608;8.838;2022-08-19T11:55:07;10.97;;;7.87;;
32292;SDS011;43233;48.608;8.838;2022-08-19T11:57:33;7.50;;;6.00;;
32292;SDS011;43233;48.608;8.838;2022-08-19T11:59:59;14.83;;;7.30;;
32292;SDS011;43233;48.608;8.838;2022-08-19T12:02:25;8.10;;;6.50;;
32292;SDS011;43233;48.608;8.838;2022-08-19T12:04:50;11.87;;;8.20;;
32292;SDS011;43233;48.608;8.838;2022-08-19T12:07:16;8.87;;;7.10;;
32292;SDS011;43233;48.608;8.838;2022-08-19T12:09:42;10.40;;;6.50;;
32292;SDS011;43233;48.608;8.838;2022-08-19T12:12:08;12.13;;;7.90;;
32292;SDS011;43233;48.608;8.838;2022-08-19T12:14:34;14.70;;;7.00;;
32292;SDS011;43233;48.608;8.838;2022-08-19T12:17:00;7.50;;;6.30;;
32292;SDS011;43233;48.608;8.838;2022-08-19T12:19:27;6.97;;;6.30;;
32292;SDS011;43233;48.608;8.838;2022-08-19T12:21:53;6.17;;;5.67;;
32292;SDS011;43233;48.608;8.838;2022-08-19T12:24:26;7.93;;;5.87;;
32292;SDS011;43233;48.608;8.838;2022-08-19T12:26:52;9.03;;;5.70;;
32292;SDS011;43233;48.608;8.838;2022-08-19T12:29:20;13.73;;;6.40;;
32292;SDS011;43233;48.608;8.838;2022-08-19T12:31:46;9.07;;;6.47;;
32292;SDS011;43233;48.608;8.838;2022-08-19T12:34:12;5.57;;;5.13;;
32292;SDS011;43233;48.608;8.838;2022-08-19T12:36:37;7.00;;;5.70;;
32292;SDS011;43233;48.608;8.838;2022-08-19T12:39:04;5.90;;;5.23;;
32292;SDS011;43233;48.608;8.838;2022-08-19T12:41:30;6.47;;;5.87;;
32292;SDS011;43233;48.608;8.838;2022-08-19T12:43:56;6.00;;;5.50;;
32292;SDS011;43233;48.608;8.838;2022-08-19T12:46:21;5.30;;;4.90;;
32292;SDS011;43233;48.608;8.838;2022-08-19T12:48:47;5.30;;;4.80;;
32292;SDS011;43233;48.608;8.838;2022-08-19T12:51:17;5.70;;;5.27;;
32292;SDS011;43233;48.608;8.838;2022-08-19T12:53:46;8.07;;;5.57;;
32292;SDS011;43233;48.608;8.838;2022-08-19T12:56:13;6.20;;;5.57;;
32292;SDS011;43233;48.608;8.838;2022-08-19T12:58:39;7.53;;;6.30;;
32292;SDS011;43233;48.608;8.838;2022-08-19T13:01:14;6.40;;;5.90;;
32292;SDS011;43233;48.608;8.838;2022-08-19T13:03:41;7.67;;;6.83;;
32292;SDS011;43233;48.608;8.838;2022-08-19T13:06:08;5.87;;;5.27;;
32292;SDS011;43233;48.608;8.838;2022-08-19T13:08:34;11.20;;;6.17;;
32292;SDS011;43233;48.608;8.838;2022-08-19T13:11:11;13.70;;;6.60;;
32292;SDS011;43233;48.608;8.838;2022-08-19T13:13:42;9.43;;;6.63;;
32292;SDS011;43233;48.608;8.838;2022-08-19T13:16:09;9.70;;;8.70;;
32292;SDS011;43233;48.608;8.838;2022-08-19T13:18:36;9.97;;;8.10;;
32292;SDS011;43233;48.608;8.838;2022-08-19T13:21:06;9.27;;;8.20;;
32292;SDS011;43233;48.608;8.838;2022-08-19T13:23:35;8.40;;;7.57;;
32292;SDS011;43233;48.608;8.838;2022-08-19T13:26:04;14.80;;;10.33;;
32292;SDS011;43233;48.608;8.838;2022-08-19T13:28:32;8.70;;;7.80;;
32292;SDS011;43233;48.608;8.838;2022-08-19T13:31:18;9.03;;;7.97;;
32292;SDS011;43233;48.608;8.838;2022-08-19T13:34:04;9.53;;;8.10;;
32292;SDS011;43233;48.608;8.838;2022-08-19T13:36:31;8.77;;;6.47;;
32292;SDS011;43233;48.608;8.838;2022-08-19T13:38:57;8.00;;;7.30;;
32292;SDS011;43233;48.608;8.838;2022-08-19T13:41:23;10.03;;;8.30;;
32292;SDS011;43233;48.608;8.838;2022-08-19T13:43:49;10.20;;;8.33;;
32292;SDS011;43233;48.608;8.838;2022-08-19T13:46:15;11.60;;;8.63;;
32292;SDS011;43233;48.608;8.838;2022-08-19T13:48:41;8.93;;;8.03;;
32292;SDS011;43233;48.608;8.838;2022-08-19T13:51:07;7.90;;;7.10;;
32292;SDS011;43233;48.608;8.838;2022-08-19T13:53:35;9.97;;;8.63;;
32292;SDS011;43233;48.608;8.838;2022-08-19T13:56:07;10.53;;;9.43;;
32292;SDS011;43233;48.608;8.838;2022-08-19T13:58:35;11.50;;;10.07;;
32292;SDS011;43233;48.608;8.838;2022-08-19T14:01:02;10.63;;;9.50;;
32292;SDS011;43233;48.608;8.838;2022-08-19T14:03:28;11.20;;;9.33;;
32292;SDS011;43233;48.608;8.838;2022-08-19T14:05:55;11.20;;;9.70;;
32292;SDS011;43233;48.608;8.838;2022-08-19T14:08:21;10.23;;;9.23;;
32292;SDS011;43233;48.608;8.838;2022-08-19T14:10:47;15.57;;;9.80;;
32292;SDS011;43233;48.608;8.838;2022-08-19T14:13:14;12.93;;;10.30;;
32292;SDS011;43233;48.608;8.838;2022-08-19T14:15:43;11.27;;;10.17;;
32292;SDS011;43233;48.608;8.838;2022-08-19T14:18:08;9.47;;;8.57;;
32292;SDS011;43233;48.608;8.838;2022-08-19T14:20:35;12.93;;;8.67;;
32292;SDS011;43233;48.608;8.838;2022-08-19T14:23:01;9.97;;;9.00;;
32292;SDS011;43233;48.608;8.838;2022-08-19T14:25:28;9.63;;;8.40;;
32292;SDS011;43233;48.608;8.838;2022-08-19T14:27:55;10.00;;;9.00;;
32292;SDS011;43233;48.608;8.838;2022-08-19T14:30:23;11.00;;;9.10;;
32292;SDS011;43233;48.608;8.838;2022-08-19T14:32:53;9.83;;;8.83;;
32292;SDS011;43233;48.608;8.838;2022-08-19T14:35:19;9.23;;;8.30;;
32292;SDS011;43233;48.608;8.838;2022-08-19T14:37:47;10.67;;;9.50;;
32292;SDS011;43233;48.608;8.838;2022-08-19T14:40:15;8.60;;;7.80;;
32292;SDS011;43233;48.608;8.838;2022-08-19T14:42:42;11.07;;;7.83;;